Time;durP1;ratioP1;P1;durP2;ratioP2;P2;SDS_P1;SDS_P2;PMS_P1;PMS_P2;Temp;Humidity;BMP_temperature;BMP_pressure;BME280_temperature;BME280_humidity;BME280_pressure;Samples;Min_cycle;Max_cycle;Signal;HPM_P1;HPM_P2
2023/10/12 00:01:59;;;;;;;;;;;20.90;82.60;;;;;;5034124;28;20016;-55
2023/10/12 00:04:25;;;;;;;;;;;20.80;82.40;;;;;;5033555;28;19917;-54
2023/10/12 00:06:51;;;;;;;;;;;20.80;82.60;;;;;;5034491;28;20324;-54
2023/10/12 00:09:19;;;;;;;;;;;20.80;82.60;;;;;;5035088;28;20399;-54
2023/10/12 00:12:07;;;;;;;;;;;20.80;82.50;;;;;;5033578;28;19917;-54
2023/10/12 00:14:33;;;;;;;;;;;20.80;82.60;;;;;;5029779;28;20358;-55
2023/10/12 00:16:58;;;;;;;;;;;20.70;82.50;;;;;;5033627;28;19921;-54
2023/10/12 00:19:24;;;;;;;;;;;20.70;82.40;;;;;;5027235;28;19926;-54
2023/10/12 00:21:52;;;;;;;;;;;20.70;82.50;;;;;;5032383;28;19919;-55
2023/10/12 00:24:18;;;;;;;;;;;20.80;82.30;;;;;;5032722;28;19915;-55
2023/10/12 00:26:44;;;;;;;;;;;20.80;82.90;;;;;;5014586;28;19960;-54
2023/10/12 00:29:10;;;;;;;;;;;20.70;82.00;;;;;;5033418;28;19921;-55
2023/10/12 00:31:38;;;;;;;;;;;20.80;82.10;;;;;;5033826;28;19913;-55
2023/10/12 00:34:04;;;;;;;;;;;20.80;82.10;;;;;;5021426;28;19920;-54
2023/10/12 00:36:29;;;;;;;;;;;20.70;81.90;;;;;;5031237;28;20297;-54
2023/10/12 00:38:56;;;;;;;;;;;20.70;82.00;;;;;;5033456;28;19956;-55
2023/10/12 00:41:24;;;;;;;;;;;20.70;81.90;;;;;;5033678;28;19913;-54
2023/10/12 00:44:18;;;;;;;;;;;20.70;82.00;;;;;;5033330;28;19924;-55
2023/10/12 00:49:22;;;;;;;;;;;20.60;82.90;;;;;;5039239;28;20388;-55
2023/10/12 00:51:51;;;;;;;;;;;20.70;82.00;;;;;;5033927;28;19912;-55
2023/10/12 00:54:26;;;;;;;;;;;20.70;81.90;;;;;;5033453;28;19948;-55
2023/10/12 00:56:55;;;;;;;;;;;20.70;81.90;;;;;;5040921;28;20012;-54
2023/10/12 00:59:22;;;;;;;;;;;20.70;81.80;;;;;;5012300;28;19914;-55
2023/10/12 01:01:50;;;;;;;;;;;20.60;81.90;;;;;;5031497;28;19913;-54
2023/10/12 01:04:16;;;;;;;;;;;20.60;82.10;;;;;;5032433;28;20094;-55
2023/10/12 01:06:44;;;;;;;;;;;20.60;82.00;;;;;;5032640;28;19924;-54
2023/10/12 01:09:18;;;;;;;;;;;20.60;81.90;;;;;;5031023;28;19917;-55
2023/10/12 01:12:00;;;;;;;;;;;20.50;81.70;;;;;;5040013;28;19917;-55
2023/10/12 01:14:30;;;;;;;;;;;20.60;81.80;;;;;;5031737;28;19920;-53
2023/10/12 01:16:59;;;;;;;;;;;20.50;81.80;;;;;;5033677;28;19917;-53
2023/10/12 01:19:31;;;;;;;;;;;20.60;81.70;;;;;;5028440;28;19940;-55
2023/10/12 01:22:11;;;;;;;;;;;20.60;81.60;;;;;;5033557;28;19972;-55
2023/10/12 01:24:43;;;;;;;;;;;20.60;81.50;;;;;;5036961;28;20402;-54
2023/10/12 01:27:12;;;;;;;;;;;20.50;81.40;;;;;;5031571;28;19928;-54
2023/10/12 01:29:38;;;;;;;;;;;20.60;81.40;;;;;;5032668;28;19924;-55
2023/10/12 01:34:37;;;;;;;;;;;20.60;81.50;;;;;;5036205;28;20388;-55
2023/10/12 01:37:22;;;;;;;;;;;20.50;81.40;;;;;;5033414;28;19972;-54
2023/10/12 01:40:42;;;;;;;;;;;20.50;81.30;;;;;;5033692;28;20017;-55
2023/10/12 01:42:50;;;;;;;;;;;20.50;81.30;;;;;;5031008;28;19923;-55
2023/10/12 01:45:18;;;;;;;;;;;20.50;81.40;;;;;;5032480;28;19936;-54
2023/10/12 01:47:44;;;;;;;;;;;20.50;81.40;;;;;;5031857;28;19924;-54
2023/10/12 01:50:10;;;;;;;;;;;20.50;81.20;;;;;;5033071;28;20289;-54
2023/10/12 01:52:35;;;;;;;;;;;20.50;81.30;;;;;;5033012;28;19913;-55
2023/10/12 01:55:01;;;;;;;;;;;20.50;81.20;;;;;;5032366;28;19913;-55
2023/10/12 01:57:35;;;;;;;;;;;20.50;81.20;;;;;;5032366;28;19917;-55
2023/10/12 02:00:15;;;;;;;;;;;20.50;81.10;;;;;;5038872;28;19916;-55
2023/10/12 02:02:48;;;;;;;;;;;20.50;81.00;;;;;;5029939;28;19918;-55
2023/10/12 02:05:23;;;;;;;;;;;20.40;80.70;;;;;;5039289;28;19923;-54
2023/10/12 02:07:52;;;;;;;;;;;20.40;80.50;;;;;;5028343;28;19917;-54
2023/10/12 02:10:18;;;;;;;;;;;20.40;80.40;;;;;;5031031;28;19917;-54
2023/10/12 02:12:45;;;;;;;;;;;20.40;80.30;;;;;;5032498;28;19924;-55
2023/10/12 02:15:15;;;;;;;;;;;20.30;80.20;;;;;;5031748;28;19909;-54
2023/10/12 02:17:42;;;;;;;;;;;20.40;80.30;;;;;;5029792;28;19917;-54
2023/10/12 02:20:11;;;;;;;;;;;20.30;80.10;;;;;;5032638;28;20016;-55
2023/10/12 02:22:36;;;;;;;;;;;20.30;80.00;;;;;;5032503;28;19917;-55
2023/10/12 02:25:26;;;;;;;;;;;20.30;79.80;;;;;;5032601;28;20286;-55
2023/10/12 02:27:58;;;;;;;;;;;20.30;79.90;;;;;;5032304;28;19909;-54
2023/10/12 02:30:30;;;;;;;;;;;20.30;79.70;;;;;;5031889;28;19917;-54
2023/10/12 02:33:05;;;;;;;;;;;20.30;79.80;;;;;;5032480;28;19913;-54
2023/10/12 02:35:37;;;;;;;;;;;20.30;80.00;;;;;;5028018;28;19959;-53
2023/10/12 02:38:09;;;;;;;;;;;20.20;79.70;;;;;;5031375;28;19920;-55
2023/10/12 02:40:35;;;;;;;;;;;20.30;79.90;;;;;;5032367;28;19909;-54
2023/10/12 02:43:00;;;;;;;;;;;20.30;79.80;;;;;;5032421;28;19920;-54
2023/10/12 02:45:29;;;;;;;;;;;20.20;79.60;;;;;;5031168;28;19946;-55
2023/10/12 02:47:54;;;;;;;;;;;20.30;79.60;;;;;;5032391;28;20266;-55
2023/10/12 02:50:32;;;;;;;;;;;20.30;79.50;;;;;;5030883;28;19964;-55
2023/10/12 02:53:05;;;;;;;;;;;20.20;79.30;;;;;;5032132;28;20391;-54
2023/10/12 02:55:40;;;;;;;;;;;20.20;79.40;;;;;;5030682;28;19920;-54
2023/10/12 02:58:19;;;;;;;;;;;20.20;79.50;;;;;;5037852;28;19909;-54
2023/10/12 03:00:46;;;;;;;;;;;20.20;79.30;;;;;;5029559;28;19945;-55
2023/10/12 03:03:25;;;;;;;;;;;20.10;79.10;;;;;;5022659;28;19952;-55
2023/10/12 03:05:52;;;;;;;;;;;20.20;79.20;;;;;;5032203;28;19909;-54
2023/10/12 03:08:22;;;;;;;;;;;20.10;79.10;;;;;;5030742;28;19913;-55
2023/10/12 03:13:33;;;;;;;;;;;20.10;78.80;;;;;;5038545;28;20011;-54
2023/10/12 03:16:03;;;;;;;;;;;20.10;79.20;;;;;;5031077;28;20015;-55
2023/10/12 03:18:29;;;;;;;;;;;20.10;78.90;;;;;;5030473;28;19917;-54
2023/10/12 03:21:15;;;;;;;;;;;20.10;79.20;;;;;;5028951;28;20286;-55
2023/10/12 03:23:40;;;;;;;;;;;20.10;78.90;;;;;;5031508;28;19944;-55
2023/10/12 03:26:24;;;;;;;;;;;20.10;79.20;;;;;;5031117;28;19909;-55
2023/10/12 03:28:51;;;;;;;;;;;20.00;79.00;;;;;;5031380;28;19916;-54
2023/10/12 03:31:26;;;;;;;;;;;20.00;78.80;;;;;;5031316;28;19924;-55
2023/10/12 03:33:54;;;;;;;;;;;20.00;78.70;;;;;;5031894;28;19909;-54
2023/10/12 03:36:23;;;;;;;;;;;20.00;78.70;;;;;;5031833;28;20004;-54
2023/10/12 03:39:07;;;;;;;;;;;20.00;78.70;;;;;;5031024;28;20365;-54
2023/10/12 03:44:27;;;;;;;;;;;19.90;78.60;;;;;;5030835;28;20368;-55
2023/10/12 03:46:57;;;;;;;;;;;19.90;78.60;;;;;;5036826;28;19940;-54
2023/10/12 03:49:32;;;;;;;;;;;19.90;78.60;;;;;;5031419;28;20369;-55
2023/10/12 03:51:59;;;;;;;;;;;19.90;78.60;;;;;;5031696;28;19909;-55
2023/10/12 03:54:34;;;;;;;;;;;19.80;78.50;;;;;;5029539;28;20349;-54
2023/10/12 03:59:44;;;;;;;;;;;19.80;78.60;;;;;;5030768;28;19920;-54
2023/10/12 04:02:14;;;;;;;;;;;19.70;78.40;;;;;;5030079;28;19913;-54
2023/10/12 04:04:45;;;;;;;;;;;19.80;78.50;;;;;;5036711;28;20276;-55
2023/10/12 04:07:17;;;;;;;;;;;19.80;78.50;;;;;;5031903;28;19909;-54
2023/10/12 04:09:43;;;;;;;;;;;19.80;78.50;;;;;;5030827;28;20448;-54
2023/10/12 04:14:53;;;;;;;;;;;19.70;78.20;;;;;;5030670;28;19935;-54
2023/10/12 04:17:47;;;;;;;;;;;19.70;78.40;;;;;;5029238;28;19971;-54
2023/10/12 04:22:40;;;;;;;;;;;19.70;78.10;;;;;;5012768;28;19909;-54
2023/10/12 04:25:13;;;;;;;;;;;19.80;78.10;;;;;;5038930;28;19920;-54
2023/10/12 04:27:41;;;;;;;;;;;19.80;78.00;;;;;;5034653;28;19952;-54
2023/10/12 04:33:11;;;;;;;;;;;19.70;77.90;;;;;;5015030;28;20421;-54
2023/10/12 04:38:19;;;;;;;;;;;19.70;77.90;;;;;;5030481;28;19920;-54
2023/10/12 04:41:15;;;;;;;;;;;19.70;77.70;;;;;;5037475;28;19916;-54
2023/10/12 04:43:30;;;;;;;;;;;19.60;78.00;;;;;;5030093;28;19913;-54
2023/10/12 04:46:05;;;;;;;;;;;19.60;77.80;;;;;;5031932;28;19967;-54
2023/10/12 04:48:31;;;;;;;;;;;19.60;77.90;;;;;;5039727;28;19916;-54
2023/10/12 04:51:01;;;;;;;;;;;19.60;78.00;;;;;;5031797;28;19921;-54
2023/10/12 04:53:53;;;;;;;;;;;19.60;77.80;;;;;;5033103;28;20000;-54
2023/10/12 04:56:18;;;;;;;;;;;19.60;77.60;;;;;;5030384;28;19932;-54
2023/10/12 04:58:56;;;;;;;;;;;19.60;77.60;;;;;;5034151;28;20321;-53
2023/10/12 05:01:28;;;;;;;;;;;19.60;77.70;;;;;;5038404;28;19921;-54
2023/10/12 05:04:35;;;;;;;;;;;19.60;77.30;;;;;;5032056;28;19917;-55
2023/10/12 05:07:23;;;;;;;;;;;19.60;77.30;;;;;;5032327;28;19916;-54
2023/10/12 05:09:34;;;;;;;;;;;19.60;77.20;;;;;;5029386;28;20016;-54
2023/10/12 05:12:00;;;;;;;;;;;19.60;77.30;;;;;;5030933;28;20003;-55
2023/10/12 05:14:25;;;;;;;;;;;19.60;77.20;;;;;;5026757;28;20589;-54
2023/10/12 05:16:51;;;;;;;;;;;19.50;77.20;;;;;;5032247;28;19917;-54
2023/10/12 05:19:16;;;;;;;;;;;19.60;77.20;;;;;;5033096;28;19925;-53
2023/10/12 05:21:43;;;;;;;;;;;19.60;77.40;;;;;;5033038;28;20037;-54
2023/10/12 05:24:09;;;;;;;;;;;19.50;77.30;;;;;;5033259;28;19917;-55
2023/10/12 05:26:35;;;;;;;;;;;19.50;77.10;;;;;;5033670;28;19909;-54
2023/10/12 05:31:55;;;;;;;;;;;19.50;77.00;;;;;;5027342;28;19920;-54
2023/10/12 05:34:32;;;;;;;;;;;19.60;77.00;;;;;;5038787;28;19917;-54
2023/10/12 05:37:00;;;;;;;;;;;19.50;76.80;;;;;;5033281;28;19909;-55
2023/10/12 05:39:27;;;;;;;;;;;19.50;76.80;;;;;;5032090;28;19909;-54
2023/10/12 05:41:56;;;;;;;;;;;19.50;76.80;;;;;;5033328;28;19909;-54
2023/10/12 05:44:26;;;;;;;;;;;19.60;77.00;;;;;;5030552;28;20055;-55
2023/10/12 05:46:58;;;;;;;;;;;19.50;76.80;;;;;;5032377;28;19920;-54
2023/10/12 05:49:25;;;;;;;;;;;19.50;76.90;;;;;;5031834;28;19962;-54
2023/10/12 05:51:51;;;;;;;;;;;19.50;76.80;;;;;;5033400;28;20280;-54
2023/10/12 05:54:20;;;;;;;;;;;19.50;76.90;;;;;;5031288;28;19917;-54
2023/10/12 05:56:47;;;;;;;;;;;19.40;76.90;;;;;;5033240;28;19919;-54
2023/10/12 05:59:12;;;;;;;;;;;19.50;76.90;;;;;;5031725;28;19974;-53
2023/10/12 06:01:45;;;;;;;;;;;19.50;76.80;;;;;;5033201;28;19913;-54
2023/10/12 06:04:14;;;;;;;;;;;19.50;76.80;;;;;;5037748;28;19964;-54
2023/10/12 06:06:43;;;;;;;;;;;19.50;76.90;;;;;;5031706;28;19919;-54
2023/10/12 06:09:12;;;;;;;;;;;19.50;76.80;;;;;;5032289;28;19928;-54
2023/10/12 06:11:41;;;;;;;;;;;19.50;77.00;;;;;;5033224;28;20004;-55
2023/10/12 06:14:07;;;;;;;;;;;19.50;76.80;;;;;;5027937;28;20717;-54
2023/10/12 06:16:40;;;;;;;;;;;19.50;76.90;;;;;;5031871;28;19933;-54
2023/10/12 06:19:18;;;;;;;;;;;19.50;76.90;;;;;;5030656;28;20003;-54
2023/10/12 06:21:44;;;;;;;;;;;19.50;76.90;;;;;;5032676;28;19913;-54
2023/10/12 06:24:11;;;;;;;;;;;19.50;76.80;;;;;;5032088;28;20318;-54
2023/10/12 06:26:37;;;;;;;;;;;19.50;76.90;;;;;;5031789;28;19942;-54
2023/10/12 06:29:03;;;;;;;;;;;19.50;76.90;;;;;;5031503;28;19909;-54
2023/10/12 06:31:33;;;;;;;;;;;19.50;76.90;;;;;;5030448;28;20301;-54
2023/10/12 06:34:02;;;;;;;;;;;19.50;76.80;;;;;;5031514;28;19923;-54
2023/10/12 06:36:37;;;;;;;;;;;19.50;76.90;;;;;;5026442;28;20431;-54
2023/10/12 06:46:53;;;;;;;;;;;19.50;77.00;;;;;;5011485;28;20290;-53
2023/10/12 06:49:21;;;;;;;;;;;19.50;76.90;;;;;;5025094;28;20395;-54
2023/10/12 06:51:53;;;;;;;;;;;19.50;76.90;;;;;;5030888;28;19964;-54
2023/10/12 06:54:32;;;;;;;;;;;19.40;76.80;;;;;;5037273;28;20366;-54
2023/10/12 06:57:30;;;;;;;;;;;19.40;76.60;;;;;;5017632;28;19917;-54
2023/10/12 06:59:52;;;;;;;;;;;19.40;76.70;;;;;;5030496;28;19919;-54
2023/10/12 07:02:24;;;;;;;;;;;19.40;76.70;;;;;;5029928;28;19913;-54
2023/10/12 07:04:55;;;;;;;;;;;19.50;76.90;;;;;;5024584;28;19959;-55
2023/10/12 07:07:27;;;;;;;;;;;19.50;77.10;;;;;;5031590;28;19913;-53
2023/10/12 07:09:53;;;;;;;;;;;19.40;77.20;;;;;;5036029;28;19968;-54
2023/10/12 07:12:19;;;;;;;;;;;19.50;77.10;;;;;;5028284;28;19917;-54
2023/10/12 07:14:53;;;;;;;;;;;19.50;76.90;;;;;;5025850;28;19920;-54
2023/10/12 07:17:18;;;;;;;;;;;19.50;76.90;;;;;;5038607;28;19917;-54
2023/10/12 07:19:49;;;;;;;;;;;19.40;76.90;;;;;;5030179;28;19974;-54
2023/10/12 07:22:18;;;;;;;;;;;19.40;77.00;;;;;;5037490;28;19967;-54
2023/10/12 07:24:44;;;;;;;;;;;19.40;77.00;;;;;;5014251;28;19913;-54
2023/10/12 07:27:11;;;;;;;;;;;19.40;77.00;;;;;;5026558;28;19920;-54
2023/10/12 07:29:39;;;;;;;;;;;19.40;77.00;;;;;;5029051;28;19921;-55
2023/10/12 07:32:24;;;;;;;;;;;19.40;77.00;;;;;;5021033;28;19913;-54
2023/10/12 07:34:54;;;;;;;;;;;19.40;77.00;;;;;;5031397;28;19913;-54
2023/10/12 07:37:20;;;;;;;;;;;19.40;77.10;;;;;;5028426;28;19913;-54
2023/10/12 07:39:50;;;;;;;;;;;19.50;76.90;;;;;;5025625;28;20265;-54
2023/10/12 07:42:27;;;;;;;;;;;19.40;76.60;;;;;;5036373;28;19913;-54
2023/10/12 07:44:56;;;;;;;;;;;19.40;76.70;;;;;;5030616;28;19921;-53
2023/10/12 07:47:31;;;;;;;;;;;19.50;76.80;;;;;;5030177;28;20438;-54
2023/10/12 07:50:13;;;;;;;;;;;19.40;76.90;;;;;;5027522;28;19925;-54
2023/10/12 07:52:38;;;;;;;;;;;19.50;76.70;;;;;;5020268;28;19917;-54
2023/10/12 07:55:07;;;;;;;;;;;19.50;76.30;;;;;;5028918;28;19917;-54
2023/10/12 07:57:36;;;;;;;;;;;19.60;76.10;;;;;;5032274;28;19909;-54
2023/10/12 08:00:34;;;;;;;;;;;19.60;76.10;;;;;;5028818;28;20051;-54
2023/10/12 08:05:17;;;;;;;;;;;19.60;76.10;;;;;;5025835;28;19993;-54
2023/10/12 08:08:08;;;;;;;;;;;19.60;75.80;;;;;;5030045;28;20358;-55
2023/10/12 08:13:15;;;;;;;;;;;19.70;75.80;;;;;;5032707;28;19919;-55
2023/10/12 08:23:50;;;;;;;;;;;19.70;75.40;;;;;;5019243;28;19941;-55
2023/10/12 08:29:09;;;;;;;;;;;19.70;75.20;;;;;;5011302;28;20060;-54
2023/10/12 08:31:43;;;;;;;;;;;19.70;75.10;;;;;;5013323;28;19959;-55
2023/10/12 08:39:38;;;;;;;;;;;19.80;75.00;;;;;;5010626;28;20008;-55
2023/10/12 08:44:48;;;;;;;;;;;19.80;74.80;;;;;;5018164;28;19944;-54
2023/10/12 08:47:25;;;;;;;;;;;19.80;75.00;;;;;;5010573;28;19917;-54
2023/10/12 08:50:01;;;;;;;;;;;19.80;75.00;;;;;;5018554;28;20378;-55
2023/10/12 08:52:27;;;;;;;;;;;19.80;74.70;;;;;;5011274;28;19920;-55
2023/10/12 08:54:54;;;;;;;;;;;19.80;74.30;;;;;;5012956;28;19945;-55
2023/10/12 08:57:32;;;;;;;;;;;19.80;74.60;;;;;;5012557;28;20013;-55
2023/10/12 09:00:19;;;;;;;;;;;19.80;74.50;;;;;;5016961;28;19914;-56
2023/10/12 09:02:49;;;;;;;;;;;19.80;74.40;;;;;;5004076;28;20377;-55
2023/10/12 09:05:15;;;;;;;;;;;19.80;74.40;;;;;;4995063;28;19916;-54
2023/10/12 09:07:45;;;;;;;;;;;19.80;74.20;;;;;;4990100;28;19961;-55
2023/10/12 09:10:36;;;;;;;;;;;19.80;74.30;;;;;;5006223;28;19917;-55
2023/10/12 09:12:56;;;;;;;;;;;19.80;74.10;;;;;;5005496;28;19965;-55
2023/10/12 09:15:38;;;;;;;;;;;19.80;74.00;;;;;;5006582;28;19964;-55
2023/10/12 09:18:09;;;;;;;;;;;19.80;74.00;;;;;;5010761;28;19959;-55
2023/10/12 09:20:40;;;;;;;;;;;19.70;74.00;;;;;;5026308;28;19933;-55
2023/10/12 09:23:15;;;;;;;;;;;19.70;74.10;;;;;;5037539;28;19920;-54
2023/10/12 09:28:38;;;;;;;;;;;19.70;74.50;;;;;;5027576;28;19959;-55
2023/10/12 09:31:09;;;;;;;;;;;19.60;74.40;;;;;;5036782;28;19928;-56
2023/10/12 09:36:19;;;;;;;;;;;19.80;74.00;;;;;;5031555;28;19920;-55
2023/10/12 09:38:44;;;;;;;;;;;20.00;73.60;;;;;;5031032;28;20441;-55
2023/10/12 09:41:14;;;;;;;;;;;20.10;73.90;;;;;;5029107;28;20007;-56
2023/10/12 09:43:40;;;;;;;;;;;20.30;72.80;;;;;;5027140;28;20389;-55
2023/10/12 09:46:09;;;;;;;;;;;20.40;72.30;;;;;;5026157;28;19936;-55
2023/10/12 09:48:38;;;;;;;;;;;20.50;72.20;;;;;;5008770;28;20000;-55
2023/10/12 09:51:15;;;;;;;;;;;20.90;71.10;;;;;;5038839;28;19917;-54
2023/10/12 09:53:53;;;;;;;;;;;21.50;69.20;;;;;;5036877;28;20434;-54
2023/10/12 09:56:24;;;;;;;;;;;22.10;68.30;;;;;;5031286;28;20369;-55
2023/10/12 09:58:52;;;;;;;;;;;22.20;66.70;;;;;;5030565;28;20270;-55
2023/10/12 10:01:25;;;;;;;;;;;22.30;66.60;;;;;;5030187;28;19931;-55
2023/10/12 10:03:52;;;;;;;;;;;22.20;66.50;;;;;;5034420;28;20357;-55
2023/10/12 10:06:20;;;;;;;;;;;22.50;66.10;;;;;;5027883;28;19917;-55
2023/10/12 10:08:57;;;;;;;;;;;22.80;65.20;;;;;;5026045;28;20032;-54
2023/10/12 10:11:26;;;;;;;;;;;23.00;64.30;;;;;;5031971;28;19918;-54
2023/10/12 10:13:53;;;;;;;;;;;23.30;63.50;;;;;;5025238;28;19917;-56
2023/10/12 10:16:18;;;;;;;;;;;23.20;63.50;;;;;;5029435;28;19991;-55
2023/10/12 10:18:47;;;;;;;;;;;23.20;63.40;;;;;;5027402;28;19913;-55
2023/10/12 10:21:15;;;;;;;;;;;23.40;62.90;;;;;;5009399;28;20548;-55
2023/10/12 10:23:48;;;;;;;;;;;23.40;62.70;;;;;;5011948;28;19918;-55
2023/10/12 10:26:23;;;;;;;;;;;23.30;62.70;;;;;;5013793;28;19918;-55
2023/10/12 10:28:55;;;;;;;;;;;23.30;62.90;;;;;;5011135;28;19917;-55
2023/10/12 10:31:27;;;;;;;;;;;23.40;62.70;;;;;;5005835;28;20012;-55
2023/10/12 10:33:57;;;;;;;;;;;23.30;62.90;;;;;;5005446;28;19921;-55
2023/10/12 10:36:26;;;;;;;;;;;23.30;63.10;;;;;;5007653;28;20445;-54
2023/10/12 10:41:37;;;;;;;;;;;23.40;62.60;;;;;;5008179;28;19918;-55
2023/10/12 10:44:03;;;;;;;;;;;23.40;62.40;;;;;;5002308;28;19918;-54
2023/10/12 10:46:28;;;;;;;;;;;23.40;62.50;;;;;;5009855;28;19923;-54
2023/10/12 10:48:54;;;;;;;;;;;23.50;62.40;;;;;;5000162;28;20000;-55
2023/10/12 10:51:27;;;;;;;;;;;23.70;61.90;;;;;;5011926;28;19917;-55
2023/10/12 10:53:52;;;;;;;;;;;23.70;61.50;;;;;;5013807;28;19913;-55
2023/10/12 10:56:41;;;;;;;;;;;23.70;61.70;;;;;;5009983;28;20304;-55
2023/10/12 10:59:07;;;;;;;;;;;23.70;61.70;;;;;;5004387;28;19928;-56
2023/10/12 11:01:32;;;;;;;;;;;23.70;61.80;;;;;;5005531;28;19914;-55
2023/10/12 11:03:58;;;;;;;;;;;23.80;61.40;;;;;;5009227;28;19918;-53
2023/10/12 11:06:27;;;;;;;;;;;23.80;61.40;;;;;;5009694;28;19979;-55
2023/10/12 11:09:05;;;;;;;;;;;23.80;61.80;;;;;;5004690;28;19913;-55
2023/10/12 11:11:48;;;;;;;;;;;23.70;62.10;;;;;;5001553;28;19925;-54
2023/10/12 11:14:17;;;;;;;;;;;23.80;61.90;;;;;;5003726;28;19921;-55
2023/10/12 11:16:48;;;;;;;;;;;23.80;61.90;;;;;;4993056;28;19918;-55
2023/10/12 11:19:19;;;;;;;;;;;23.80;62.00;;;;;;5012835;28;19928;-56
2023/10/12 11:21:53;;;;;;;;;;;23.70;62.40;;;;;;5028608;28;20415;-55
2023/10/12 11:24:20;;;;;;;;;;;23.60;62.60;;;;;;5026144;28;19917;-56
2023/10/12 11:26:51;;;;;;;;;;;23.70;62.60;;;;;;5023871;28;19924;-54
2023/10/12 11:29:17;;;;;;;;;;;23.70;62.50;;;;;;5025608;28;20370;-55
2023/10/12 11:31:46;;;;;;;;;;;23.70;62.60;;;;;;5027035;28;20385;-55
2023/10/12 11:34:12;;;;;;;;;;;23.60;63.20;;;;;;5027946;28;20328;-54
2023/10/12 11:36:38;;;;;;;;;;;23.70;63.00;;;;;;5028186;28;19917;-55
2023/10/12 11:39:04;;;;;;;;;;;23.70;63.00;;;;;;5030924;28;19924;-55
2023/10/12 11:41:30;;;;;;;;;;;23.70;63.20;;;;;;5032808;28;19940;-55
2023/10/12 11:44:00;;;;;;;;;;;23.60;63.50;;;;;;5031975;28;20004;-54
2023/10/12 11:46:26;;;;;;;;;;;23.50;63.50;;;;;;5040719;28;19913;-55
2023/10/12 11:49:01;;;;;;;;;;;23.60;63.90;;;;;;5032642;28;20336;-55
2023/10/12 11:51:27;;;;;;;;;;;23.60;63.90;;;;;;5031827;28;19917;-55
2023/10/12 11:53:53;;;;;;;;;;;23.40;64.30;;;;;;5032255;28;20374;-54
2023/10/12 11:56:22;;;;;;;;;;;23.40;64.60;;;;;;5032258;28;19948;-55
2023/10/12 11:58:51;;;;;;;;;;;23.40;64.60;;;;;;5030081;28;20438;-54
2023/10/12 12:01:18;;;;;;;;;;;23.50;64.50;;;;;;5022542;28;19917;-55
2023/10/12 12:03:45;;;;;;;;;;;23.40;64.70;;;;;;5032981;28;19917;-56
2023/10/12 12:06:21;;;;;;;;;;;23.40;64.90;;;;;;5026674;28;19917;-55
2023/10/12 12:08:47;;;;;;;;;;;23.40;65.00;;;;;;5026431;28;20440;-55
2023/10/12 12:11:19;;;;;;;;;;;23.40;64.80;;;;;;5031973;28;19917;-55
2023/10/12 12:13:48;;;;;;;;;;;23.30;65.10;;;;;;5036929;28;20138;-55
2023/10/12 12:16:20;;;;;;;;;;;23.30;65.20;;;;;;5029652;28;19923;-55
2023/10/12 12:18:51;;;;;;;;;;;23.30;65.30;;;;;;5037083;28;19920;-55
2023/10/12 12:21:18;;;;;;;;;;;23.50;64.90;;;;;;5031996;28;19917;-55
2023/10/12 12:23:50;;;;;;;;;;;23.50;65.00;;;;;;5033177;28;19913;-55
2023/10/12 12:26:18;;;;;;;;;;;23.40;65.30;;;;;;5030619;28;19967;-55
2023/10/12 12:28:44;;;;;;;;;;;23.40;65.30;;;;;;5030393;28;19991;-55
2023/10/12 12:31:15;;;;;;;;;;;23.60;65.00;;;;;;5028335;28;20827;-55
2023/10/12 12:33:44;;;;;;;;;;;23.70;64.10;;;;;;5028399;28;21731;-54
2023/10/12 12:36:12;;;;;;;;;;;23.90;63.60;;;;;;5025069;28;19917;-54
2023/10/12 12:41:12;;;;;;;;;;;24.00;63.60;;;;;;5030390;28;19985;-56
2023/10/12 12:43:38;;;;;;;;;;;23.80;63.90;;;;;;5038623;28;19917;-54
2023/10/12 12:46:05;;;;;;;;;;;23.80;64.00;;;;;;5029648;28;19917;-55
2023/10/12 12:48:31;;;;;;;;;;;23.80;64.30;;;;;;5029886;28;19913;-55
2023/10/12 12:50:56;;;;;;;;;;;23.80;64.40;;;;;;5026421;28;19917;-55
2023/10/12 12:53:22;;;;;;;;;;;23.80;64.50;;;;;;5029682;28;19996;-55
2023/10/12 12:55:47;;;;;;;;;;;23.70;64.90;;;;;;5029146;28;19924;-55
2023/10/12 12:58:17;;;;;;;;;;;23.70;64.80;;;;;;5030321;28;20392;-55
2023/10/12 13:00:46;;;;;;;;;;;23.70;64.60;;;;;;5034056;28;19925;-55
2023/10/12 13:03:16;;;;;;;;;;;23.70;65.00;;;;;;5011385;28;19921;-55
2023/10/12 13:05:42;;;;;;;;;;;23.70;64.80;;;;;;5029213;28;19978;-54
2023/10/12 13:08:07;;;;;;;;;;;23.80;64.50;;;;;;5034497;28;19917;-55
2023/10/12 13:10:34;;;;;;;;;;;23.70;64.80;;;;;;5023970;28;19982;-55
2023/10/12 13:13:01;;;;;;;;;;;23.80;65.00;;;;;;5024455;28;19989;-55
2023/10/12 13:15:26;;;;;;;;;;;23.80;64.80;;;;;;5028627;28;19932;-55
2023/10/12 13:17:52;;;;;;;;;;;23.80;64.50;;;;;;5031590;28;19917;-55
2023/10/12 13:20:21;;;;;;;;;;;24.00;64.30;;;;;;5032056;28;19929;-55
2023/10/12 13:22:50;;;;;;;;;;;23.90;64.60;;;;;;5026515;28;20408;-55
2023/10/12 13:25:17;;;;;;;;;;;23.80;64.80;;;;;;5031281;28;19913;-56
2023/10/12 13:27:49;;;;;;;;;;;23.90;65.00;;;;;;5031018;28;19917;-55
2023/10/12 13:30:14;;;;;;;;;;;23.90;64.60;;;;;;5032026;28;20340;-55
2023/10/12 13:32:42;;;;;;;;;;;23.80;64.60;;;;;;5030399;28;20007;-55
2023/10/12 13:35:31;;;;;;;;;;;23.80;65.00;;;;;;5027222;28;19999;-56
2023/10/12 13:38:02;;;;;;;;;;;23.80;65.00;;;;;;5029127;28;20003;-55
2023/10/12 13:40:29;;;;;;;;;;;24.00;64.90;;;;;;5035600;28;19917;-55
2023/10/12 13:43:01;;;;;;;;;;;23.90;64.50;;;;;;5033100;28;19917;-55
2023/10/12 13:45:28;;;;;;;;;;;23.90;64.90;;;;;;5037519;28;19913;-55
2023/10/12 13:47:54;;;;;;;;;;;23.80;64.90;;;;;;5030117;28;19917;-55
2023/10/12 13:50:19;;;;;;;;;;;23.90;64.90;;;;;;5030005;28;20388;-55
2023/10/12 13:52:45;;;;;;;;;;;24.00;64.80;;;;;;5028340;28;19920;-55
2023/10/12 13:55:11;;;;;;;;;;;23.90;64.80;;;;;;5031457;28;20456;-55
2023/10/12 13:57:37;;;;;;;;;;;23.90;64.90;;;;;;5030995;28;19920;-55
2023/10/12 14:00:04;;;;;;;;;;;23.90;65.10;;;;;;5027493;28;19948;-55
2023/10/12 14:02:29;;;;;;;;;;;23.90;65.00;;;;;;5032283;28;19919;-55
2023/10/12 14:04:58;;;;;;;;;;;23.90;64.70;;;;;;5031609;28;19936;-54
2023/10/12 14:07:23;;;;;;;;;;;24.00;64.80;;;;;;5026840;28;19925;-55
2023/10/12 14:09:49;;;;;;;;;;;23.90;64.80;;;;;;5033716;28;19917;-55
2023/10/12 14:12:16;;;;;;;;;;;23.90;65.10;;;;;;5030821;28;20110;-55
2023/10/12 14:14:41;;;;;;;;;;;23.80;65.20;;;;;;5028320;28;19913;-54
2023/10/12 14:17:07;;;;;;;;;;;23.80;64.90;;;;;;5024849;28;19914;-55
2023/10/12 14:19:35;;;;;;;;;;;23.80;65.00;;;;;;5024411;28;19928;-56
2023/10/12 14:22:03;;;;;;;;;;;23.70;66.00;;;;;;5030456;28;19913;-55
2023/10/12 14:24:33;;;;;;;;;;;23.80;65.20;;;;;;5029994;28;19917;-55
2023/10/12 14:27:00;;;;;;;;;;;23.70;64.90;;;;;;5031783;28;20392;-55
2023/10/12 14:29:26;;;;;;;;;;;23.80;64.70;;;;;;5025136;28;19920;-55
2023/10/12 14:31:51;;;;;;;;;;;23.90;65.50;;;;;;5034416;28;19913;-55
2023/10/12 14:34:17;;;;;;;;;;;23.90;64.50;;;;;;5026478;28;20259;-55
2023/10/12 14:36:44;;;;;;;;;;;24.10;64.20;;;;;;5030494;28;19909;-54
2023/10/12 14:39:13;;;;;;;;;;;24.10;64.10;;;;;;5032045;28;19955;-55
2023/10/12 14:41:39;;;;;;;;;;;24.10;64.00;;;;;;5026719;28;19917;-55
2023/10/12 14:44:05;;;;;;;;;;;24.10;64.10;;;;;;5029714;28;19959;-55
2023/10/12 14:46:30;;;;;;;;;;;24.20;63.70;;;;;;5030906;28;20361;-55
2023/10/12 14:48:56;;;;;;;;;;;24.20;63.50;;;;;;5028754;28;19913;-55
2023/10/12 14:51:25;;;;;;;;;;;24.10;63.40;;;;;;5029461;28;20197;-55
2023/10/12 14:53:50;;;;;;;;;;;24.10;63.50;;;;;;5023781;28;19971;-55
2023/10/12 14:56:23;;;;;;;;;;;24.10;63.50;;;;;;5030030;28;19952;-55
2023/10/12 14:58:50;;;;;;;;;;;24.20;63.20;;;;;;5030909;28;19998;-55
2023/10/12 15:01:17;;;;;;;;;;;24.30;63.00;;;;;;5035513;28;19920;-55
2023/10/12 15:03:45;;;;;;;;;;;24.20;63.20;;;;;;5028590;28;19921;-55
2023/10/12 15:06:12;;;;;;;;;;;24.20;63.30;;;;;;5031250;28;19939;-56
2023/10/12 15:08:38;;;;;;;;;;;24.30;62.80;;;;;;5016516;28;21054;-54
2023/10/12 15:11:05;;;;;;;;;;;24.30;62.50;;;;;;5030176;28;19940;-55
2023/10/12 15:13:31;;;;;;;;;;;24.30;62.70;;;;;;5028124;28;19913;-55
2023/10/12 15:15:58;;;;;;;;;;;24.30;62.70;;;;;;5024563;28;19921;-55
2023/10/12 15:18:23;;;;;;;;;;;24.30;62.70;;;;;;5031468;28;19909;-55
2023/10/12 15:20:49;;;;;;;;;;;24.30;62.40;;;;;;5048808;28;19925;-55
2023/10/12 15:23:16;;;;;;;;;;;24.30;62.80;;;;;;5041133;28;19909;-54
2023/10/12 15:25:41;;;;;;;;;;;24.20;62.90;;;;;;5005262;28;19917;-55
2023/10/12 15:28:07;;;;;;;;;;;24.20;63.00;;;;;;5025532;28;19914;-54
2023/10/12 15:30:33;;;;;;;;;;;24.10;62.50;;;;;;5028359;28;20056;-55
2023/10/12 15:32:59;;;;;;;;;;;24.10;62.70;;;;;;5029056;28;20351;-55
2023/10/12 15:38:28;;;;;;;;;;;24.20;62.40;;;;;;5036876;28;19979;-55
2023/10/12 15:40:54;;;;;;;;;;;24.30;62.50;;;;;;5028141;28;20374;-55
2023/10/12 15:43:20;;;;;;;;;;;24.30;62.50;;;;;;5016393;28;19920;-55
2023/10/12 15:45:46;;;;;;;;;;;24.30;62.70;;;;;;5031749;28;20249;-54